Time;durP1;ratioP1;P1;durP2;ratioP2;P2;SDS_P1;SDS_P2;PMS_P1;PMS_P2;Temp;Humidity;BMP_temperature;BMP_pressure;BME280_temperature;BME280_humidity;BME280_pressure;Samples;Min_cycle;Max_cycle;Signal;HPM_P1;HPM_P2
2023/02/17 00:00:34;;;;;;;41.40;19.88;;;;;;;0.22;70.83;101121.00;5047231;28;20048;-36
2023/02/17 00:02:59;;;;;;;37.28;18.15;;;;;;;0.13;69.90;101119.16;5047423;28;20048;-36
2023/02/17 00:05:26;;;;;;;39.00;18.58;;;;;;;0.01;70.39;101101.78;5046940;28;20029;-37
2023/02/17 00:07:52;;;;;;;41.13;19.00;;;;;;;-0.14;69.06;101125.69;5047432;28;20033;-36
2023/02/17 00:10:18;;;;;;;41.70;19.92;;;;;;;-0.01;68.94;101104.53;5047065;28;20808;-37
2023/02/17 00:12:44;;;;;;;40.00;18.60;;;;;;;-0.24;69.73;101106.41;5046847;28;20025;-36
2023/02/17 00:15:10;;;;;;;35.38;17.65;;;;;;;-0.54;70.48;101107.88;5047233;28;20029;-37
2023/02/17 00:17:35;;;;;;;35.40;17.88;;;;;;;-0.83;71.95;101092.66;5046866;28;20514;-37
2023/02/17 00:20:00;;;;;;;35.92;16.13;;;;;;;-0.89;71.75;101097.53;5047232;28;20032;-36
2023/02/17 00:22:26;;;;;;;36.40;15.68;;;;;;;-1.04;72.42;101100.41;5047006;28;20100;-36
2023/02/17 00:24:51;;;;;;;33.58;16.08;;;;;;;-1.20;73.05;101084.19;5047057;28;20474;-37
2023/02/17 00:27:18;;;;;;;34.13;16.27;;;;;;;-0.51;71.04;101102.41;5050502;28;20044;-36
2023/02/17 00:29:44;;;;;;;33.13;16.10;;;;;;;-1.02;72.82;101089.81;5050694;28;20120;-36
2023/02/17 00:32:10;;;;;;;35.83;16.85;;;;;;;-0.93;72.52;101078.59;5050676;28;20100;-36
2023/02/17 00:34:36;;;;;;;39.13;18.15;;;;;;;-0.36;71.36;101078.56;5050589;28;20419;-36
2023/02/17 00:37:01;;;;;;;41.17;17.88;;;;;;;-0.11;71.00;101093.97;5050451;28;20029;-37
2023/02/17 00:39:27;;;;;;;44.58;17.58;;;;;;;-0.53;72.58;101051.06;5050126;28;20948;-37
2023/02/17 00:41:53;;;;;;;42.03;17.75;;;;;;;-0.25;71.69;101081.13;5050298;28;20036;-37
2023/02/17 00:44:22;;;;;;;44.40;19.13;;;;;;;-0.34;71.44;101087.94;5050729;28;20508;-37
2023/02/17 00:46:47;;;;;;;41.13;19.02;;;;;;;-0.50;72.27;101080.47;5049222;28;20541;-36
2023/02/17 00:49:18;;;;;;;40.92;18.33;;;;;;;-0.47;73.62;101056.66;5050129;28;20114;-37
2023/02/17 00:51:44;;;;;;;42.60;19.58;;;;;;;-0.27;73.78;101057.66;5050231;28;20029;-37
2023/02/17 00:54:13;;;;;;;41.28;18.92;;;;;;;-0.55;73.67;101032.00;5049973;28;20039;-36
2023/02/17 00:56:38;;;;;;;38.63;18.90;;;;;;;-0.50;75.14;101066.53;5050536;28;20033;-37
2023/02/17 00:59:04;;;;;;;38.70;18.33;;;;;;;-0.15;72.67;101041.91;5050208;28;20616;-36
2023/02/17 01:01:30;;;;;;;44.10;20.15;;;;;;;0.00;71.69;101051.16;5049959;28;20040;-36
2023/02/17 01:03:55;;;;;;;44.25;20.35;;;;;;;-0.66;73.24;101031.06;5050001;28;20425;-36
2023/02/17 01:06:24;;;;;;;48.92;21.02;;;;;;;-0.33;72.04;101046.84;5049974;28;20032;-37
2023/02/17 01:08:49;;;;;;;;;;;;;;;-0.31;72.21;101045.75;5050203;28;20032;-36
2023/02/17 01:11:22;;;;;;;42.63;19.65;;;;;;;-0.54;72.09;101034.50;5049869;28;20288;-37
2023/02/17 01:13:47;;;;;;;41.35;18.85;;;;;;;-0.31;72.08;101031.81;5049869;28;20025;-36
2023/02/17 01:16:19;;;;;;;39.78;18.73;;;;;;;-0.34;71.06;101024.22;5049995;28;20028;-37
2023/02/17 01:18:44;;;;;;;41.42;18.73;;;;;;;-0.45;71.64;101036.41;5049726;28;20017;-37
2023/02/17 01:21:21;;;;;;;43.10;20.02;;;;;;;-0.50;72.60;101014.97;5049701;28;20029;-35
2023/02/17 01:23:54;;;;;;;43.45;20.77;;;;;;;-0.38;71.45;101015.78;5049718;28;20028;-36
2023/02/17 01:26:22;;;;;;;46.17;19.80;;;;;;;-0.44;71.78;101003.16;5049812;28;20047;-36
2023/02/17 01:28:48;;;;;;;;;;;;;;;-0.02;70.95;101035.53;5050007;28;20037;-36
2023/02/17 01:31:14;;;;;;;38.40;19.23;;;;;;;-0.36;71.21;100994.69;5049159;28;19913;-36
2023/02/17 01:33:40;;;;;;;40.85;20.50;;;;;;;-0.41;71.61;101019.47;5049339;28;20029;-37
2023/02/17 01:36:08;;;;;;;43.58;20.45;;;;;;;-0.47;71.72;101006.88;5049145;28;20508;-36
2023/02/17 01:38:35;;;;;;;46.35;20.55;;;;;;;-0.21;71.22;101019.63;5048703;28;20033;-36
2023/02/17 01:41:01;;;;;;;43.35;20.48;;;;;;;-0.46;72.16;100990.19;5048994;28;20059;-37
2023/02/17 01:43:27;;;;;;;48.85;21.63;;;;;;;-0.53;72.70;100989.03;5049010;28;20108;-36
2023/02/17 01:45:58;;;;;;;52.30;23.38;;;;;;;-0.39;72.88;101013.25;5049098;28;20033;-36
2023/02/17 01:48:29;;;;;;;46.05;22.75;;;;;;;-0.36;72.86;101002.53;5048871;28;20025;-36
2023/02/17 01:51:02;;;;;;;47.63;21.95;;;;;;;-0.77;73.44;100975.28;5049214;28;20504;-37
2023/02/17 01:53:35;;;;;;;45.20;21.20;;;;;;;-0.98;73.99;100994.38;5048896;28;20056;-37
2023/02/17 01:56:02;;;;;;;41.97;19.50;;;;;;;-0.98;72.57;100989.13;5049353;28;20712;-36
2023/02/17 01:58:29;;;;;;;45.45;20.85;;;;;;;-1.02;72.99;100979.84;5048975;28;20033;-37
2023/02/17 02:00:58;;;;;;;49.15;22.48;;;;;;;-0.73;71.74;100977.53;5048802;28;20382;-36
2023/02/17 02:03:24;;;;;;;46.83;21.85;;;;;;;-0.49;71.98;100995.69;5048922;28;20056;-37
2023/02/17 02:05:49;;;;;;;52.47;25.27;;;;;;;-0.29;71.51;100973.06;5049048;28;20029;-37
2023/02/17 02:08:15;;;;;;;49.53;22.90;;;;;;;-0.70;71.63;100968.59;5048802;28;20550;-36
2023/02/17 02:10:41;;;;;;;43.30;21.08;;;;;;;-0.75;71.82;100963.72;5049000;28;20033;-37
2023/02/17 02:13:07;;;;;;;55.78;26.02;;;;;;;-0.83;71.52;100976.59;5049013;28;20033;-36
2023/02/17 02:15:54;;;;;;;62.38;26.30;;;;;;;-0.74;71.22;100965.38;5048267;28;20033;-36
2023/02/17 02:18:31;;;;;;;61.45;26.98;;;;;;;-0.43;69.54;100979.47;5048929;28;20077;-37
2023/02/17 02:21:20;;;;;;;57.90;25.20;;;;;;;-0.36;69.38;100974.53;5048748;28;20062;-36
2023/02/17 02:23:49;;;;;;;56.20;26.25;;;;;;;-0.11;68.55;100983.84;5048311;28;20017;-37
2023/02/17 02:26:23;;;;;;;59.15;26.88;;;;;;;-0.32;68.72;100980.38;5048385;28;20637;-36
2023/02/17 02:29:13;;;;;;;56.50;25.75;;;;;;;-0.23;68.42;100979.59;5048585;28;20037;-36
2023/02/17 02:32:20;;;;;;;52.40;24.88;;;;;;;-0.30;68.66;100973.22;5048379;28;20500;-37
2023/02/17 02:35:12;;;;;;;56.90;24.93;;;;;;;-0.83;69.97;100960.88;5047794;28;20045;-37
2023/02/17 02:37:55;;;;;;;58.35;29.00;;;;;;;-1.27;71.99;100978.31;5048360;28;20289;-36
2023/02/17 02:40:25;;;;;;;56.63;26.13;;;;;;;-1.13;72.46;100979.84;5047857;28;20386;-36
2023/02/17 02:42:52;;;;;;;59.97;26.88;;;;;;;-1.10;72.05;100963.91;5048217;28;20040;-36
2023/02/17 02:45:18;;;;;;;60.15;27.70;;;;;;;-1.49;73.62;100986.97;5048061;28;20036;-35
2023/02/17 02:47:54;;;;;;;52.67;24.90;;;;;;;-0.95;72.12;100981.00;5048168;28;20032;-35
2023/02/17 02:50:50;;;;;;;54.35;24.75;;;;;;;-0.84;71.79;100980.16;5047904;28;20025;-36
2023/02/17 02:53:42;;;;;;;54.30;22.45;;;;;;;-0.96;71.74;100976.75;5047966;28;20036;-36
2023/02/17 02:56:29;;;;;;;50.65;23.00;;;;;;;-0.94;71.54;100980.06;5048290;28;20484;-36
2023/02/17 02:59:30;;;;;;;56.92;24.60;;;;;;;-1.26;71.64;100965.09;5047958;28;20057;-36
2023/02/17 03:02:11;;;;;;;51.92;23.58;;;;;;;-1.69;73.85;100984.13;5047669;28;20028;-36
2023/02/17 03:04:40;;;;;;;55.22;24.95;;;;;;;-1.63;73.17;100981.03;5047989;28;20103;-36
2023/02/17 03:07:20;;;;;;;48.72;23.00;;;;;;;-2.23;73.49;100954.19;5047703;28;20091;-36
2023/02/17 03:09:51;;;;;;;43.92;19.90;;;;;;;-2.12;73.13;100953.38;5047588;28;20020;-36
2023/02/17 03:12:17;;;;;;;38.75;19.27;;;;;;;-1.85;72.40;100973.16;5047698;28;20021;-36
2023/02/17 03:14:43;;;;;;;54.45;22.23;;;;;;;-1.71;72.20;100975.56;5047587;28;20029;-36
2023/02/17 03:17:09;;;;;;;52.00;22.85;;;;;;;-1.77;73.18;100973.41;5047548;28;20036;-37
2023/02/17 03:19:35;;;;;;;46.95;21.30;;;;;;;-2.11;74.07;100978.53;5047494;28;20029;-36
2023/02/17 03:22:06;;;;;;;48.42;21.15;;;;;;;-2.24;74.74;100962.97;5047342;28;20067;-36
2023/02/17 03:24:33;;;;;;;37.47;17.13;;;;;;;-2.28;74.98;100955.47;5048175;28;20028;-35
2023/02/17 03:26:59;;;;;;;38.92;18.05;;;;;;;-2.51;76.23;100976.28;5047664;28;20025;-36
2023/02/17 03:29:24;;;;;;;43.25;18.65;;;;;;;-2.10;75.34;100964.56;5047317;28;20040;-36
2023/02/17 03:31:52;;;;;;;43.95;19.20;;;;;;;-1.81;73.69;100966.75;5047602;28;20025;-36
2023/02/17 03:34:17;;;;;;;41.75;18.77;;;;;;;-2.04;74.16;100968.50;5047660;28;20033;-36
2023/02/17 03:36:42;;;;;;;48.38;21.13;;;;;;;-2.11;74.96;100982.94;5047396;28;20029;-37
2023/02/17 03:39:08;;;;;;;48.45;20.67;;;;;;;-1.95;74.63;100993.09;5047536;28;20041;-36
2023/02/17 03:41:33;;;;;;;48.10;20.70;;;;;;;-1.76;74.89;100982.91;5046928;28;20428;-36
2023/02/17 03:44:01;;;;;;;48.03;20.33;;;;;;;-2.05;77.00;100993.78;5047529;28;20488;-35
2023/02/17 03:46:26;;;;;;;45.07;21.50;;;;;;;-2.08;76.58;100978.34;5047422;28;20112;-37
2023/02/17 03:48:52;;;;;;;46.95;21.20;;;;;;;-2.51;77.33;100949.34;5047243;28;20101;-36
2023/02/17 03:51:22;;;;;;;42.15;19.73;;;;;;;-1.95;75.69;100980.03;5046977;28;20033;-36
2023/02/17 03:53:51;;;;;;;45.97;22.30;;;;;;;-1.62;74.04;100972.22;5047344;28;20032;-36
2023/02/17 03:56:17;;;;;;;48.38;22.73;;;;;;;-1.46;74.25;100994.59;5047528;28;20104;-36
2023/02/17 03:58:43;;;;;;;83.13;34.45;;;;;;;-1.68;73.72;100975.31;5047424;28;20033;-36
2023/02/17 04:01:10;;;;;;;78.55;34.85;;;;;;;-1.66;74.31;100968.19;5049341;28;20025;-36
2023/02/17 04:03:37;;;;;;;74.47;34.65;;;;;;;-1.72;74.95;100984.34;5051088;28;20614;-36
2023/02/17 04:06:03;;;;;;;67.15;32.15;;;;;;;-1.44;74.41;100977.00;5050863;28;20032;-36
2023/02/17 04:08:29;;;;;;;59.72;28.25;;;;;;;-1.40;74.34;100978.44;5051211;28;20040;-36
2023/02/17 04:10:59;;;;;;;65.80;34.03;;;;;;;-1.58;73.81;100972.81;5051025;28;20025;-36
2023/02/17 04:13:25;;;;;;;52.08;25.48;;;;;;;-1.64;75.28;100979.34;5051066;28;20040;-36
2023/02/17 04:15:51;;;;;;;51.92;23.33;;;;;;;-1.81;75.39;100964.13;5050998;28;20025;-36
2023/02/17 04:18:20;;;;;;;54.95;26.05;;;;;;;-1.72;75.59;100979.09;5050977;28;20040;-36
2023/02/17 04:20:48;;;;;;;53.50;24.90;;;;;;;-1.74;77.21;100980.19;5050904;28;20029;-36
2023/02/17 04:23:14;;;;;;;52.13;23.38;;;;;;;-1.70;76.68;100966.75;5050843;28;20032;-35
2023/02/17 04:25:40;;;;;;;43.60;19.85;;;;;;;-1.69;76.30;100971.03;5050920;28;20037;-36
2023/02/17 04:28:06;;;;;;;46.30;21.33;;;;;;;-1.64;75.46;100971.50;5050678;28;20036;-36
2023/02/17 04:30:32;;;;;;;51.72;22.25;;;;;;;-1.63;75.37;100972.38;5050755;28;20029;-37
2023/02/17 04:33:01;;;;;;;45.78;21.45;;;;;;;-1.62;74.59;100964.38;5050303;28;20664;-36
2023/02/17 04:35:28;;;;;;;47.60;21.02;;;;;;;-1.54;74.63;100973.44;5050600;28;20017;-36
2023/02/17 04:37:54;;;;;;;70.47;30.65;;;;;;;-1.71;73.70;100965.09;5050654;28;20107;-36
2023/02/17 04:40:22;;;;;;;74.95;30.52;;;;;;;-2.03;74.83;100936.97;5050281;28;20136;-36
2023/02/17 04:42:47;;;;;;;68.85;27.45;;;;;;;-1.71;75.06;100962.47;5050412;28;20028;-36
2023/02/17 04:45:13;;;;;;;65.35;28.27;;;;;;;-1.69;74.28;100973.66;5050039;28;20040;-36
2023/02/17 04:47:39;;;;;;;64.35;27.42;;;;;;;-1.58;74.80;100985.09;5050148;28;20393;-36
2023/02/17 04:50:07;;;;;;;55.65;26.63;;;;;;;-2.24;76.59;100943.84;5050537;28;20029;-36
2023/02/17 04:52:35;;;;;;;53.47;24.77;;;;;;;-2.31;77.85;100968.75;5050317;28;20056;-36
2023/02/17 04:55:01;;;;;;;68.25;27.13;;;;;;;-1.93;74.88;100959.84;5050002;28;20041;-36
2023/02/17 04:57:26;;;;;;;56.63;25.98;;;;;;;-1.92;76.95;100971.94;5049790;28;20083;-36
2023/02/17 04:59:52;;;;;;;52.58;24.67;;;;;;;-1.82;76.10;100957.22;5049894;28;20107;-36
2023/02/17 05:02:18;;;;;;;58.97;26.15;;;;;;;-1.69;75.56;100983.28;5050162;28;20037;-36
2023/02/17 05:04:43;;;;;;;49.05;23.10;;;;;;;-2.03;76.37;100976.19;5049912;28;20244;-36
2023/02/17 05:07:09;;;;;;;67.57;33.70;;;;;;;-2.06;76.18;100957.31;5049831;28;20485;-37
2023/02/17 05:09:34;;;;;;;59.17;27.40;;;;;;;-2.45;76.37;100947.09;5049614;28;20017;-35
2023/02/17 05:12:01;;;;;;;51.75;22.27;;;;;;;-2.36;76.92;100974.31;5049609;28;20060;-36
2023/02/17 05:14:28;;;;;;;47.17;22.13;;;;;;;-2.14;77.91;100976.19;5049578;28;20029;-36
2023/02/17 05:16:53;;;;;;;53.60;23.85;;;;;;;-1.98;77.72;100980.25;5049450;28;20033;-36
2023/02/17 05:19:18;;;;;;;51.78;23.40;;;;;;;-2.13;77.85;100980.44;5049771;28;20035;-36
2023/02/17 05:21:44;;;;;;;62.95;29.40;;;;;;;-2.36;78.24;100955.19;5049602;28;20029;-37
2023/02/17 05:24:09;;;;;;;63.90;29.38;;;;;;;-2.29;77.27;100974.69;5049630;28;20032;-36
2023/02/17 05:26:35;;;;;;;63.15;28.67;;;;;;;-2.07;77.78;100974.75;5049505;28;20036;-36
2023/02/17 05:29:00;;;;;;;67.97;30.13;;;;;;;-2.23;77.61;100974.22;5049411;28;20497;-36
2023/02/17 05:31:26;;;;;;;61.63;30.40;;;;;;;-2.09;77.44;100971.44;5049028;28;20408;-36
2023/02/17 05:33:53;;;;;;;57.67;27.90;;;;;;;-2.03;78.05;100976.19;5049192;28;20463;-36
2023/02/17 05:36:18;;;;;;;61.97;30.13;;;;;;;-2.23;78.78;100955.94;5049278;28;20032;-36
2023/02/17 05:38:47;;;;;;;56.80;25.73;;;;;;;-1.71;77.61;100990.41;5049106;28;20017;-36
2023/02/17 05:41:13;;;;;;;71.32;32.05;;;;;;;-1.55;76.52;100974.38;5048539;28;20057;-36
2023/02/17 05:43:39;;;;;;;66.35;28.77;;;;;;;-1.07;74.94;100987.22;5047267;28;20049;-36
2023/02/17 05:46:05;;;;;;;70.15;28.95;;;;;;;-1.09;74.78;100986.50;5049113;28;20025;-36
2023/02/17 05:48:33;;;;;;;114.45;45.22;;;;;;;-1.36;75.37;100984.28;5049089;28;20028;-36
2023/02/17 05:51:01;;;;;;;;;;;;;;;-1.10;75.98;100990.09;5049276;28;20166;-36
2023/02/17 05:53:27;;;;;;;;;;;;;;;-1.47;76.10;100999.00;5049102;28;20450;-36
2023/02/17 05:55:53;;;;;;;63.13;28.80;;;;;;;-1.73;76.54;100987.91;5048859;28;19916;-36
2023/02/17 05:58:18;;;;;;;62.47;27.40;;;;;;;-1.48;76.04;100991.28;5048573;28;20040;-36
2023/02/17 06:00:44;;;;;;;61.53;27.90;;;;;;;-1.63;75.97;100975.81;5048764;28;20029;-37
2023/02/17 06:03:10;;;;;;;53.08;26.17;;;;;;;-1.72;77.29;100979.09;5048986;28;20465;-36
2023/02/17 06:05:36;;;;;;;60.80;25.75;;;;;;;-1.83;78.68;100971.25;5048502;28;20039;-36
2023/02/17 06:08:04;;;;;;;53.85;26.17;;;;;;;-1.56;79.43;100977.94;5049077;28;20048;-37
2023/02/17 06:10:29;;;;;;;53.75;27.27;;;;;;;-1.43;78.42;100979.50;5048506;28;20036;-36
2023/02/17 06:12:55;;;;;;;55.78;25.65;;;;;;;-1.19;77.75;100998.66;5047128;28;20059;-36
2023/02/17 06:15:20;;;;;;;60.45;27.30;;;;;;;-0.75;75.63;100997.78;5048087;28;20472;-36
2023/02/17 06:17:46;;;;;;;62.97;28.08;;;;;;;-0.51;75.47;101000.22;5048499;28;20051;-36
2023/02/17 06:20:11;;;;;;;79.60;33.22;;;;;;;-0.50;74.81;101004.47;5048418;28;20544;-36
2023/02/17 06:22:37;;;;;;;64.38;29.35;;;;;;;-0.46;75.80;100995.41;5048198;28;20029;-36
2023/02/17 06:25:03;;;;;;;52.90;25.98;;;;;;;-0.45;75.15;100968.28;5048125;28;20029;-36
2023/02/17 06:27:28;;;;;;;48.53;23.13;;;;;;;-0.16;74.09;100991.25;5046363;28;20037;-36
2023/02/17 06:29:54;;;;;;;48.17;23.55;;;;;;;-0.25;75.14;101008.56;5048151;28;20033;-37
2023/02/17 06:32:19;;;;;;;48.35;21.73;;;;;;;-0.27;75.98;101007.03;5048306;28;20457;-36
2023/02/17 06:34:44;;;;;;;44.85;21.08;;;;;;;0.17;75.18;101013.03;5048350;28;20033;-37
2023/02/17 06:37:10;;;;;;;44.72;21.35;;;;;;;-0.10;75.37;100985.50;5048291;28;20535;-37
2023/02/17 06:39:35;;;;;;;49.58;23.15;;;;;;;0.27;75.22;101013.91;5047591;28;20057;-36
2023/02/17 06:42:01;;;;;;;53.33;25.58;;;;;;;0.62;73.92;101022.41;5048051;28;20029;-36
2023/02/17 06:44:26;;;;;;;52.88;25.73;;;;;;;0.60;74.33;101014.66;5047827;28;20405;-36
2023/02/17 06:46:52;;;;;;;51.83;25.27;;;;;;;0.65;74.34;101030.00;5048088;28;20112;-36
2023/02/17 06:49:17;;;;;;;51.53;25.30;;;;;;;0.76;73.31;101001.88;5047785;28;20052;-37
2023/02/17 06:51:43;;;;;;;52.65;26.17;;;;;;;1.05;73.15;101024.78;5048048;28;20420;-35
2023/02/17 06:54:08;;;;;;;69.55;34.03;;;;;;;0.87;74.77;101016.69;5047674;28;20083;-37
2023/02/17 06:56:35;;;;;;;72.78;36.22;;;;;;;0.97;75.62;101028.06;5047838;28;20032;-36
2023/02/17 06:59:00;;;;;;;78.38;35.80;;;;;;;0.92;74.13;101003.16;5047608;28;20102;-37
2023/02/17 07:01:26;;;;;;;69.85;33.13;;;;;;;0.99;74.71;101004.31;5047728;28;20444;-37
2023/02/17 07:03:53;;;;;;;65.38;32.90;;;;;;;0.94;75.63;101017.00;5047519;28;20025;-36
2023/02/17 07:06:19;;;;;;;69.82;32.45;;;;;;;1.14;74.10;101013.47;5047512;28;20033;-36
2023/02/17 07:08:44;;;;;;;64.13;35.17;;;;;;;1.25;73.46;101009.06;5047581;28;20029;-37
2023/02/17 07:11:12;;;;;;;67.18;32.97;;;;;;;1.47;73.64;101010.63;5047323;28;20115;-36
2023/02/17 07:13:39;;;;;;;68.15;34.58;;;;;;;1.63;73.21;101028.50;5047256;28;20059;-35
2023/02/17 07:16:06;;;;;;;65.80;34.13;;;;;;;1.80;72.40;101017.31;5047327;28;20033;-36
2023/02/17 07:18:31;;;;;;;67.15;34.20;;;;;;;1.81;72.13;101042.63;5047395;28;20064;-36
2023/02/17 07:20:59;;;;;;;77.45;41.15;;;;;;;2.08;70.51;101023.50;5047590;28;20059;-36
2023/02/17 07:23:27;;;;;;;92.75;45.20;;;;;;;2.33;70.76;101035.28;5047298;28;20025;-36
2023/02/17 07:25:52;;;;;;;136.65;72.28;;;;;;;2.39;70.47;101026.81;5047334;28;20037;-37
2023/02/17 07:28:18;;;;;;;116.80;69.45;;;;;;;2.73;69.47;101034.19;5047316;28;20499;-37
2023/02/17 07:30:46;;;;;;;91.50;50.25;;;;;;;2.70;69.89;101034.50;5047497;28;20029;-37
2023/02/17 07:33:11;;;;;;;79.50;44.63;;;;;;;2.57;70.00;101007.63;5047322;28;20025;-36
2023/02/17 07:35:42;;;;;;;77.70;37.05;;;;;;;2.87;70.76;100997.81;5048356;28;20025;-37
2023/02/17 07:38:08;;;;;;;68.03;33.95;;;;;;;3.27;69.29;101031.75;5051284;28;20858;-36
2023/02/17 07:40:34;;;;;;;57.25;28.90;;;;;;;3.40;68.39;101021.66;5051092;28;20041;-37
2023/02/17 07:42:59;;;;;;;59.72;30.17;;;;;;;3.44;68.29;101014.28;5051372;28;20033;-36
2023/02/17 07:45:25;;;;;;;58.22;30.65;;;;;;;3.74;69.37;101026.31;5049972;28;20033;-37
2023/02/17 07:47:50;;;;;;;55.42;27.80;;;;;;;3.64;68.63;101028.19;5051020;28;20029;-37
2023/02/17 07:50:16;;;;;;;55.78;27.95;;;;;;;3.92;68.37;101026.28;5051240;28;20044;-37
2023/02/17 07:52:41;;;;;;;58.45;28.85;;;;;;;4.44;66.26;101030.81;5051005;28;20028;-37
2023/02/17 07:55:07;;;;;;;52.55;28.25;;;;;;;4.40;68.51;101034.75;5050539;28;20025;-36
2023/02/17 07:57:32;;;;;;;58.45;28.70;;;;;;;4.50;67.32;101045.22;5049497;28;20043;-36
2023/02/17 07:59:57;;;;;;;50.30;28.58;;;;;;;4.46;67.64;101007.72;5051331;28;20456;-37
2023/02/17 08:02:23;;;;;;;58.97;30.70;;;;;;;4.80;66.71;101028.88;5050950;28;20115;-37
2023/02/17 08:04:48;;;;;;;67.80;34.92;;;;;;;4.78;66.53;101011.50;5050707;28;20406;-36
2023/02/17 08:07:14;;;;;;;61.65;34.08;;;;;;;5.15;65.02;101035.00;5050683;28;20765;-36
2023/02/17 08:15:09;;;;;;;63.90;35.10;;;;;;;6.00;62.66;101037.50;5039457;28;20413;-37
2023/02/17 08:17:35;;;;;;;73.53;37.83;;;;;;;6.12;61.82;101032.72;5040318;28;20086;-37
2023/02/17 08:20:00;;;;;;;63.95;36.75;;;;;;;6.36;61.25;101039.81;5040836;28;20033;-37
2023/02/17 08:22:26;;;;;;;78.47;38.30;;;;;;;6.40;61.77;101041.16;5039225;28;20055;-37
2023/02/17 08:24:51;;;;;;;65.13;36.42;;;;;;;6.43;60.11;101032.84;5041690;28;20040;-37
2023/02/17 08:27:17;;;;;;;67.82;34.72;;;;;;;6.43;59.60;101032.84;5050501;28;20056;-37
2023/02/17 08:29:44;;;;;;;64.85;33.50;;;;;;;6.67;57.85;101044.41;5050545;28;20029;-37
2023/02/17 08:32:10;;;;;;;64.85;33.33;;;;;;;6.66;57.75;101047.22;5050173;28;20123;-37
2023/02/17 08:34:36;;;;;;;69.30;33.58;;;;;;;6.81;58.15;101041.06;5050135;28;20063;-37
2023/02/17 08:37:04;;;;;;;62.22;30.35;;;;;;;7.02;56.34;101035.19;5049978;28;20025;-36
2023/02/17 08:39:30;;;;;;;52.78;28.75;;;;;;;7.26;55.69;101029.97;5050002;28;20044;-36
2023/02/17 08:41:55;;;;;;;50.00;26.58;;;;;;;7.73;55.10;101039.66;5050141;28;20033;-35
2023/02/17 08:44:23;;;;;;;54.55;29.45;;;;;;;7.90;53.59;101033.19;5050307;28;20465;-35
2023/02/17 08:46:50;;;;;;;45.33;25.35;;;;;;;7.86;53.19;101053.16;5049527;28;20044;-35
2023/02/17 08:49:18;;;;;;;41.65;23.50;;;;;;;8.12;52.05;101046.66;5049627;28;20037;-36
2023/02/17 08:51:44;;;;;;;45.08;24.98;;;;;;;8.51;53.05;101048.34;5050524;28;20104;-36
2023/02/17 08:54:10;;;;;;;53.40;28.42;;;;;;;8.69;52.31;101051.47;5049976;28;20041;-37
2023/02/17 08:56:37;;;;;;;49.33;26.80;;;;;;;8.67;51.49;101031.41;5050069;28;20497;-37
2023/02/17 08:59:05;;;;;;;41.97;22.25;;;;;;;8.99;50.48;101043.50;5048721;28;20050;-37
2023/02/17 09:01:33;;;;;;;39.88;22.10;;;;;;;9.04;49.57;101035.78;5049795;28;20025;-36
2023/02/17 09:04:00;;;;;;;39.20;21.17;;;;;;;9.22;47.63;101030.91;5049820;28;20039;-36
2023/02/17 09:06:34;;;;;;;36.17;19.80;;;;;;;9.24;47.80;101028.06;5049790;28;20500;-37
2023/02/17 09:09:00;;;;;;;37.05;20.05;;;;;;;9.51;47.66;101045.16;5049712;28;20040;-36
2023/02/17 09:11:25;;;;;;;34.63;18.65;;;;;;;9.53;47.65;101032.50;5037344;28;20034;-36
2023/02/17 09:13:51;;;;;;;36.30;19.33;;;;;;;9.64;46.23;101048.00;5029671;28;20489;-36
2023/02/17 09:16:19;;;;;;;35.83;20.45;;;;;;;10.10;45.49;101024.66;5029289;28;20026;-37
2023/02/17 09:18:45;;;;;;;33.50;19.52;;;;;;;10.62;44.22;101047.41;5029186;28;20029;-36
2023/02/17 09:21:12;;;;;;;27.27;15.90;;;;;;;10.78;43.56;101049.78;5029461;28;20388;-36
2023/02/17 09:23:39;;;;;;;24.13;13.03;;;;;;;11.06;40.94;101043.56;5029429;28;20029;-37
2023/02/17 09:26:08;;;;;;;22.50;12.43;;;;;;;10.99;40.44;101032.03;5029075;28;20300;-36
2023/02/17 09:28:34;;;;;;;23.38;13.88;;;;;;;10.99;41.22;101026.69;5029265;28;20486;-37
2023/02/17 09:31:11;;;;;;;26.75;14.65;;;;;;;11.24;40.50;101040.38;5029004;28;20091;-36
2023/02/17 09:33:37;;;;;;;26.05;15.35;;;;;;;11.21;40.67;101020.22;5029423;28;20038;-37
2023/02/17 09:36:04;;;;;;;29.48;16.20;;;;;;;11.76;40.26;101030.84;5028957;28;20036;-36
2023/02/17 09:38:29;;;;;;;25.63;15.53;;;;;;;11.76;40.31;101003.31;5028787;28;20037;-36
2023/02/17 09:41:14;;;;;;;29.27;16.42;;;;;;;12.19;39.90;101029.69;5029167;28;20057;-36
2023/02/17 09:43:39;;;;;;;25.98;15.50;;;;;;;11.98;38.64;101007.47;5029009;28;20795;-36
2023/02/17 09:46:13;;;;;;;26.15;15.30;;;;;;;11.99;38.58;100990.44;5029253;28;20069;-36
2023/02/17 09:48:39;;;;;;;26.05;15.88;;;;;;;12.37;38.90;101015.69;5028553;28;20072;-36
2023/02/17 09:51:23;;;;;;;24.48;14.95;;;;;;;12.85;37.98;101005.53;5028656;28;20125;-37
2023/02/17 09:54:04;;;;;;;25.25;14.48;;;;;;;13.01;36.47;100995.38;5027190;28;20570;-36
2023/02/17 09:56:44;;;;;;;26.10;14.65;;;;;;;13.31;36.51;101017.09;5028433;28;20045;-36
2023/02/17 09:59:21;;;;;;;27.55;14.93;;;;;;;13.53;36.41;101006.09;5027193;28;20557;-37
2023/02/17 10:01:50;;;;;;;25.23;14.88;;;;;;;13.34;36.47;100997.94;5028308;28;20405;-37
2023/02/17 10:04:28;;;;;;;26.60;15.25;;;;;;;13.84;35.18;100999.88;5028434;28;20037;-36
2023/02/17 10:07:01;;;;;;;24.63;14.93;;;;;;;13.88;34.69;100990.38;5029135;28;20068;-36
2023/02/17 10:09:41;;;;;;;24.80;13.95;;;;;;;14.06;34.28;100987.75;5028102;28;20108;-36
2023/02/17 10:12:13;;;;;;;27.27;14.48;;;;;;;14.05;34.33;100975.38;5028714;28;20026;-37
2023/02/17 10:14:48;;;;;;;25.25;13.68;;;;;;;13.89;34.09;100975.91;5028310;28;20029;-37
2023/02/17 10:17:36;;;;;;;23.58;13.40;;;;;;;14.13;34.03;100970.78;5028457;28;20116;-37
2023/02/17 10:20:01;;;;;;;;;;;;;;;13.99;33.82;100965.50;5029098;28;20055;-36
2023/02/17 10:22:29;;;;;;;24.37;14.37;;;;;;;13.99;33.35;100944.06;5028256;28;19909;-36
2023/02/17 10:24:59;;;;;;;26.30;14.75;;;;;;;14.63;33.43;100965.38;5028310;28;20347;-36
2023/02/17 10:27:38;;;;;;;27.83;13.95;;;;;;;15.02;32.83;100957.88;5027993;28;20030;-35
2023/02/17 10:30:06;;;;;;;27.05;16.17;;;;;;;15.23;32.38;100965.44;5028432;28;20038;-37
2023/02/17 10:33:00;;;;;;;23.77;14.40;;;;;;;15.42;33.07;100946.56;5028519;28;20036;-37
2023/02/17 10:35:49;;;;;;;23.65;13.52;;;;;;;15.86;31.58;100922.97;5027388;28;20119;-37
2023/02/17 10:38:18;;;;;;;22.73;12.65;;;;;;;16.36;31.01;100945.88;5027837;28;20036;-36
2023/02/17 10:40:49;;;;;;;22.80;13.13;;;;;;;16.71;29.63;100945.00;5028097;28;20057;-37
2023/02/17 10:43:23;;;;;;;22.58;12.85;;;;;;;16.96;30.21;100936.63;5027807;28;20107;-37
2023/02/17 10:45:50;;;;;;;21.98;12.85;;;;;;;16.62;29.94;100928.38;5027884;28;20532;-36
2023/02/17 10:48:37;;;;;;;20.88;12.95;;;;;;;16.98;29.18;100938.03;5027895;28;20025;-36
2023/02/17 10:51:03;;;;;;;20.05;12.70;;;;;;;16.59;30.57;100918.06;5027979;28;20171;-36
2023/02/17 10:53:35;;;;;;;23.25;11.93;;;;;;;16.87;29.24;100893.91;5027653;28;20034;-37
2023/02/17 10:56:18;;;;;;;22.92;12.55;;;;;;;17.21;29.46;100910.16;5026420;28;20056;-36
2023/02/17 10:58:53;;;;;;;21.75;13.23;;;;;;;17.42;28.75;100915.91;5027949;28;20060;-36
2023/02/17 11:01:19;;;;;;;23.95;14.48;;;;;;;18.10;28.59;100910.53;5027761;28;20559;-37
2023/02/17 11:03:45;;;;;;;24.75;13.23;;;;;;;18.77;27.53;100910.31;5027735;28;20033;-37
2023/02/17 11:06:22;;;;;;;18.73;12.25;;;;;;;18.25;27.40;100895.34;5027789;28;20056;-37
2023/02/17 11:08:47;;;;;;;22.75;14.68;;;;;;;18.87;27.39;100904.22;5026241;28;20033;-36
2023/02/17 11:11:22;;;;;;;22.70;13.80;;;;;;;18.96;27.11;100904.59;5027791;28;20034;-37
2023/02/17 11:13:50;;;;;;;23.85;14.23;;;;;;;18.86;26.27;100908.81;5027578;28;20477;-37
2023/02/17 11:16:26;;;;;;;34.47;24.67;;;;;;;18.71;28.38;100876.19;5027536;28;20025;-38
2023/02/17 11:18:56;;;;;;;19.48;11.57;;;;;;;19.11;26.34;100893.13;5027906;28;20029;-36
2023/02/17 11:21:29;;;;;;;21.42;12.77;;;;;;;18.94;26.82;100860.78;5025259;28;20091;-37
2023/02/17 11:23:58;;;;;;;19.80;11.18;;;;;;;19.53;25.46;100876.97;5026193;28;20021;-36